Time;durP1;ratioP1;P1;durP2;ratioP2;P2;SDS_P1;SDS_P2;PMS_P1;PMS_P2;Temp;Humidity;BMP_temperature;BMP_pressure;BME280_temperature;BME280_humidity;BME280_pressure;Samples;Min_cycle;Max_cycle;Signal;HPM_P1;HPM_P2
2022/07/29 00:00:15;;;;;;;8.38;2.63;;;14.50;99.90;;;;;;6218459;23;20018;-86
2022/07/29 00:02:40;;;;;;;7.10;2.70;;;14.50;99.90;;;;;;6218223;23;20040;-86
2022/07/29 00:05:09;;;;;;;8.77;2.63;;;14.50;99.90;;;;;;6217050;23;20083;-86
2022/07/29 00:07:35;;;;;;;7.53;2.88;;;14.50;99.90;;;;;;6218310;23;20452;-85
2022/07/29 00:10:00;;;;;;;7.95;2.88;;;14.50;99.90;;;;;;6218835;23;20016;-86
2022/07/29 00:12:26;;;;;;;8.85;2.50;;;14.40;99.90;;;;;;6217745;23;20023;-86
2022/07/29 00:14:54;;;;;;;8.75;2.85;;;14.40;99.90;;;;;;6244766;23;20027;-86
2022/07/29 00:17:20;;;;;;;6.97;2.65;;;14.50;99.90;;;;;;6244977;23;20502;-85
2022/07/29 00:19:45;;;;;;;8.07;2.75;;;14.40;99.90;;;;;;6219111;23;20016;-85
2022/07/29 00:22:11;;;;;;;8.73;2.72;;;14.40;99.90;;;;;;6218635;23;20012;-86
2022/07/29 00:24:37;;;;;;;7.22;2.60;;;14.40;99.90;;;;;;6221718;23;20019;-85
2022/07/29 00:27:02;;;;;;;9.38;3.22;;;14.40;99.90;;;;;;6234551;23;20356;-85
2022/07/29 00:29:28;;;;;;;11.30;3.50;;;14.40;99.90;;;;;;6222534;23;20024;-86
2022/07/29 00:31:53;;;;;;;8.45;3.00;;;14.40;99.90;;;;;;6221377;23;20015;-86
2022/07/29 00:37:03;;;;;;;;;;;14.40;99.90;;;;;;6249015;23;20027;-85
2022/07/29 00:39:29;;;;;;;9.15;3.25;;;14.50;99.90;;;;;;6248088;23;20006;-86
2022/07/29 00:41:55;;;;;;;7.80;3.05;;;14.60;99.90;;;;;;6248622;23;20081;-86
2022/07/29 00:44:20;;;;;;;9.30;3.05;;;14.40;99.90;;;;;;6221357;23;20344;-86
2022/07/29 00:46:46;;;;;;;9.25;3.40;;;14.40;99.90;;;;;;6220262;23;20016;-86
2022/07/29 00:49:12;;;;;;;8.27;3.25;;;14.40;99.90;;;;;;6217214;23;20502;-85
2022/07/29 00:51:38;;;;;;;8.88;3.35;;;14.50;99.90;;;;;;6247699;23;20016;-86
2022/07/29 00:54:34;;;;;;;9.15;3.00;;;15.00;99.90;;;;;;6220325;23;20012;-86
2022/07/29 00:57:01;;;;;;;8.65;3.25;;;14.40;99.90;;;;;;6195584;23;20022;-85
2022/07/29 00:59:27;;;;;;;8.63;3.17;;;14.20;99.90;;;;;;6248678;23;20015;-86
2022/07/29 01:01:53;;;;;;;8.55;3.35;;;14.30;99.90;;;;;;6247078;23;20023;-85
2022/07/29 01:04:35;;;;;;;8.43;3.30;;;14.90;99.90;;;;;;6221753;23;20004;-86
2022/07/29 01:07:04;;;;;;;8.48;2.92;;;14.30;99.90;;;;;;6221397;23;20102;-86
2022/07/29 01:09:47;;;;;;;9.20;3.38;;;15.10;99.90;;;;;;6220516;23;20042;-86
2022/07/29 01:12:18;;;;;;;7.63;3.42;;;14.60;99.90;;;;;;6249144;23;20048;-86
2022/07/29 01:14:59;;;;;;;9.98;3.67;;;15.10;99.90;;;;;;6220351;23;20016;-86
2022/07/29 01:18:06;;;;;;;8.60;3.20;;;14.10;99.90;;;;;;6221454;23;20023;-86
2022/07/29 01:20:57;;;;;;;9.38;3.45;;;14.30;99.90;;;;;;6222169;23;20016;-86
2022/07/29 01:23:38;;;;;;;9.85;3.40;;;14.40;99.90;;;;;;6247793;23;20016;-85
2022/07/29 01:26:26;;;;;;;8.35;3.25;;;14.30;99.90;;;;;;6221064;23;20058;-85
2022/07/29 01:29:16;;;;;;;9.52;3.30;;;14.20;99.90;;;;;;6220264;23;20039;-85
2022/07/29 01:31:47;;;;;;;8.05;3.10;;;14.70;99.90;;;;;;6220705;23;20039;-85
2022/07/29 01:34:21;;;;;;;8.85;3.50;;;14.30;99.90;;;;;;6221265;23;20012;-85
2022/07/29 01:36:57;;;;;;;8.82;3.60;;;14.30;99.90;;;;;;6245853;23;20062;-85
2022/07/29 01:39:42;;;;;;;9.23;3.30;;;14.20;99.90;;;;;;6247068;23;20008;-85
2022/07/29 01:42:38;;;;;;;8.93;3.08;;;14.20;99.90;;;;;;6219877;23;20068;-85
2022/07/29 01:45:27;;;;;;;8.35;3.00;;;14.20;99.90;;;;;;6219341;23;20062;-85
2022/07/29 01:48:03;;;;;;;7.50;2.88;;;14.20;99.90;;;;;;6219422;23;20091;-85
2022/07/29 01:50:35;;;;;;;7.90;3.28;;;14.20;99.90;;;;;;6245546;23;20052;-85
2022/07/29 01:53:03;;;;;;;8.68;3.58;;;14.20;99.90;;;;;;6246104;23;20445;-85
2022/07/29 01:55:33;;;;;;;7.70;3.17;;;14.20;99.90;;;;;;6219865;23;20372;-85
2022/07/29 01:58:00;;;;;;;7.82;2.97;;;14.20;99.90;;;;;;6221941;23;20012;-85
2022/07/29 02:00:31;;;;;;;9.50;3.55;;;14.20;99.90;;;;;;6257165;23;20474;-85
2022/07/29 02:03:00;;;;;;;7.65;2.97;;;14.20;99.90;;;;;;6246575;23;20008;-85
2022/07/29 02:05:28;;;;;;;8.98;3.30;;;14.90;99.90;;;;;;6239561;23;20027;-85
2022/07/29 02:08:13;;;;;;;8.63;3.40;;;15.20;99.90;;;;;;6219002;23;20016;-85
2022/07/29 02:10:42;;;;;;;8.40;3.33;;;15.10;99.90;;;;;;6218172;23;20139;-86
2022/07/29 02:13:25;;;;;;;9.55;3.22;;;14.70;99.90;;;;;;6246901;23;20022;-86
2022/07/29 02:15:53;;;;;;;9.02;3.40;;;14.10;99.90;;;;;;6219119;23;20019;-85
2022/07/29 02:18:36;;;;;;;10.30;3.78;;;14.50;99.90;;;;;;6218439;23;20014;-86
2022/07/29 02:21:04;;;;;;;7.70;3.30;;;14.10;99.90;;;;;;6219617;23;20175;-85
2022/07/29 02:23:47;;;;;;;11.23;3.20;;;14.70;99.90;;;;;;6219696;23;20040;-85
2022/07/29 02:26:12;;;;;;;8.10;3.20;;;13.60;99.90;;;;;;6218366;23;20016;-85
2022/07/29 02:28:39;;;;;;;8.23;3.22;;;14.70;99.90;;;;;;6219358;23;20047;-85
2022/07/29 02:31:24;;;;;;;9.20;3.25;;;14.90;99.90;;;;;;6245994;23;20338;-85
2022/07/29 02:33:51;;;;;;;12.10;3.22;;;14.60;99.90;;;;;;6218038;23;20062;-85
2022/07/29 02:36:20;;;;;;;8.95;3.20;;;14.50;99.90;;;;;;6246245;23;20028;-85
2022/07/29 02:39:03;;;;;;;8.57;3.03;;;14.70;99.90;;;;;;6244628;23;20012;-86
2022/07/29 02:41:47;;;;;;;8.52;3.45;;;14.80;99.90;;;;;;6219217;23;20024;-85
2022/07/29 02:44:23;;;;;;;8.52;3.53;;;14.90;99.90;;;;;;6219316;23;20020;-85
2022/07/29 02:47:11;;;;;;;9.75;3.40;;;14.00;99.90;;;;;;6217479;23;20016;-85
2022/07/29 02:50:21;;;;;;;10.40;3.35;;;14.00;99.90;;;;;;6219221;23;20016;-85
2022/07/29 02:53:00;;;;;;;8.18;3.30;;;14.00;99.90;;;;;;6218115;23;20404;-85
2022/07/29 02:56:11;;;;;;;8.55;3.40;;;14.00;99.90;;;;;;6246330;23;20028;-85
2022/07/29 02:59:00;;;;;;;9.80;3.20;;;14.00;99.90;;;;;;6189249;23;20020;-85
2022/07/29 03:01:31;;;;;;;8.65;3.47;;;14.00;99.90;;;;;;6217839;23;20020;-85
2022/07/29 03:04:02;;;;;;;9.90;3.47;;;14.00;99.90;;;;;;6245195;23;20472;-85
2022/07/29 03:06:30;;;;;;;10.93;3.17;;;14.60;99.90;;;;;;6218806;23;20051;-86
2022/07/29 03:08:58;;;;;;;10.25;3.13;;;14.00;99.90;;;;;;6217670;23;20016;-85
2022/07/29 03:11:25;;;;;;;9.57;3.20;;;14.00;99.90;;;;;;6219024;23;20150;-85
2022/07/29 03:13:51;;;;;;;8.82;3.38;;;14.50;99.90;;;;;;6217566;23;20015;-85
2022/07/29 03:16:21;;;;;;;9.57;3.00;;;14.00;99.90;;;;;;6218784;23;20016;-85
2022/07/29 03:18:47;;;;;;;8.98;3.17;;;14.00;99.90;;;;;;6245427;23;20079;-85
2022/07/29 03:21:13;;;;;;;9.98;3.17;;;13.80;99.90;;;;;;6218124;23;20044;-85
2022/07/29 03:23:44;;;;;;;9.13;2.90;;;14.00;99.90;;;;;;6219083;23;20012;-85
2022/07/29 03:26:09;;;;;;;9.50;3.00;;;13.90;99.90;;;;;;6219006;23;20012;-85
2022/07/29 03:28:35;;;;;;;8.90;3.10;;;13.90;99.90;;;;;;6218022;23;20016;-85
2022/07/29 03:31:00;;;;;;;7.20;2.90;;;13.90;99.90;;;;;;6221324;23;20036;-85
2022/07/29 03:33:28;;;;;;;7.70;2.92;;;13.90;99.90;;;;;;6229932;23;20459;-85
2022/07/29 03:35:54;;;;;;;8.93;3.28;;;13.90;99.90;;;;;;6218940;23;20022;-85
2022/07/29 03:38:23;;;;;;;8.90;2.80;;;13.90;99.90;;;;;;6246151;23;20086;-85
2022/07/29 03:40:56;;;;;;;8.55;3.03;;;13.80;99.90;;;;;;6218245;23;20020;-85
2022/07/29 03:43:24;;;;;;;7.35;2.72;;;13.90;99.90;;;;;;6245359;23;20016;-85
2022/07/29 03:45:53;;;;;;;10.00;3.00;;;14.40;99.90;;;;;;6245275;23;20087;-85
2022/07/29 03:48:21;;;;;;;10.48;2.90;;;13.90;99.90;;;;;;6218657;23;20012;-85
2022/07/29 03:50:49;;;;;;;8.00;2.67;;;13.80;99.90;;;;;;6217612;23;20016;-85
2022/07/29 03:53:15;;;;;;;8.40;3.10;;;13.80;99.90;;;;;;6245278;23;20507;-85
2022/07/29 03:55:44;;;;;;;8.65;2.80;;;13.80;99.90;;;;;;6218698;23;20448;-85
2022/07/29 03:58:12;;;;;;;9.55;2.72;;;13.80;99.90;;;;;;6217461;23;20012;-86
2022/07/29 04:00:38;;;;;;;8.98;3.10;;;13.80;99.90;;;;;;6218012;23;20054;-85
2022/07/29 04:03:04;;;;;;;8.18;3.03;;;13.80;99.90;;;;;;6244016;23;20012;-85
2022/07/29 04:05:30;;;;;;;8.95;2.92;;;13.80;99.90;;;;;;6218035;23;20043;-86
2022/07/29 04:07:55;;;;;;;10.13;2.80;;;13.80;99.90;;;;;;6218177;23;20436;-85
2022/07/29 04:10:22;;;;;;;8.45;2.80;;;13.80;99.90;;;;;;6217489;23;20801;-86
2022/07/29 04:12:52;;;;;;;8.30;2.88;;;13.80;99.90;;;;;;6245326;23;20103;-85
2022/07/29 04:15:18;;;;;;;7.55;3.10;;;13.80;99.90;;;;;;6218391;23;20097;-86
2022/07/29 04:17:43;;;;;;;9.82;2.85;;;13.80;99.90;;;;;;6217159;23;20046;-86
2022/07/29 04:20:12;;;;;;;8.25;3.13;;;13.80;99.90;;;;;;6218730;23;20024;-85
2022/07/29 04:22:39;;;;;;;9.07;2.70;;;13.80;99.90;;;;;;6218562;23;20558;-85
2022/07/29 04:25:13;;;;;;;8.32;2.90;;;13.80;99.90;;;;;;6244492;23;20087;-85
2022/07/29 04:28:04;;;;;;;8.38;2.75;;;13.80;99.90;;;;;;6186511;23;20114;-85
2022/07/29 04:30:31;;;;;;;8.45;2.83;;;14.20;99.90;;;;;;6218297;23;20024;-85
2022/07/29 04:32:57;;;;;;;10.35;2.70;;;14.00;99.90;;;;;;6216806;23;20436;-85
2022/07/29 04:35:25;;;;;;;8.27;2.80;;;13.80;99.90;;;;;;6245583;23;20056;-85
2022/07/29 04:37:50;;;;;;;9.55;2.90;;;13.90;99.90;;;;;;6216829;23;20017;-85
2022/07/29 04:40:16;;;;;;;8.50;2.80;;;13.90;99.90;;;;;;6217330;23;20039;-85
2022/07/29 04:42:41;;;;;;;8.57;2.88;;;13.90;99.90;;;;;;6245632;23;20073;-85
2022/07/29 04:45:07;;;;;;;9.77;2.90;;;14.10;99.90;;;;;;6245238;23;20023;-85
2022/07/29 04:47:33;;;;;;;11.38;2.90;;;13.90;99.90;;;;;;6244517;23;20456;-85
2022/07/29 04:49:59;;;;;;;8.20;2.60;;;13.90;99.90;;;;;;6218081;23;20340;-85
2022/07/29 04:52:24;;;;;;;8.73;3.22;;;13.90;99.90;;;;;;6217344;23;20412;-85
2022/07/29 04:54:50;;;;;;;7.30;2.80;;;14.00;99.90;;;;;;6217834;23;20020;-85
2022/07/29 04:57:15;;;;;;;9.38;2.72;;;14.00;99.90;;;;;;6245482;23;20223;-85
2022/07/29 04:59:41;;;;;;;8.60;2.55;;;14.70;99.90;;;;;;6217317;23;20095;-85
2022/07/29 05:02:07;;;;;;;8.95;2.75;;;14.00;99.90;;;;;;6244212;23;20325;-85
2022/07/29 05:04:32;;;;;;;7.78;2.88;;;14.00;99.90;;;;;;6224028;23;20024;-85
2022/07/29 05:06:58;;;;;;;9.32;2.88;;;14.10;99.90;;;;;;6224685;23;20021;-85
2022/07/29 05:09:23;;;;;;;8.52;2.88;;;14.60;99.90;;;;;;6245557;23;20046;-85
2022/07/29 05:11:49;;;;;;;8.35;2.78;;;14.50;99.90;;;;;;6246952;23;20070;-85
2022/07/29 05:14:14;;;;;;;7.85;2.97;;;14.10;99.90;;;;;;6219528;23;20460;-86
2022/07/29 05:16:40;;;;;;;7.75;2.90;;;14.20;99.90;;;;;;6220119;23;20348;-85
2022/07/29 05:19:06;;;;;;;7.47;2.65;;;14.20;99.90;;;;;;6219845;23;20020;-85
2022/07/29 05:21:32;;;;;;;10.30;3.00;;;14.30;99.90;;;;;;6219236;23;20094;-85
2022/07/29 05:23:57;;;;;;;7.90;2.88;;;14.30;99.90;;;;;;6246919;23;20444;-85
2022/07/29 05:26:23;;;;;;;7.90;2.72;;;14.40;99.90;;;;;;6220246;23;20341;-86
2022/07/29 05:28:49;;;;;;;11.60;2.75;;;14.40;99.90;;;;;;6218798;23;20020;-85
2022/07/29 05:31:15;;;;;;;8.85;2.90;;;14.50;99.90;;;;;;6246834;23;20020;-85
2022/07/29 05:33:41;;;;;;;8.25;2.50;;;14.60;99.90;;;;;;6219444;23;20012;-85
2022/07/29 05:36:07;;;;;;;7.40;2.85;;;14.50;99.90;;;;;;6218516;23;20500;-86
2022/07/29 05:38:33;;;;;;;9.18;2.95;;;14.50;99.90;;;;;;6219858;23;20012;-85
2022/07/29 05:40:59;;;;;;;8.20;2.90;;;14.60;99.90;;;;;;6246680;23;20016;-91
2022/07/29 05:43:27;;;;;;;9.38;2.70;;;14.70;99.90;;;;;;6246286;23;20036;-86
2022/07/29 05:45:52;;;;;;;9.43;2.72;;;14.80;99.90;;;;;;6219737;23;20440;-81
2022/07/29 05:48:18;;;;;;;9.23;2.60;;;14.80;99.90;;;;;;6246639;23;20020;-81
2022/07/29 05:50:43;;;;;;;9.48;2.80;;;14.80;99.90;;;;;;6245579;23;20425;-82
2022/07/29 05:53:09;;;;;;;10.00;2.83;;;14.80;99.90;;;;;;6247047;23;20440;-82
2022/07/29 05:55:34;;;;;;;7.38;2.67;;;14.80;99.90;;;;;;6218666;23;20015;-80
2022/07/29 05:58:00;;;;;;;7.32;2.60;;;14.80;99.90;;;;;;6219037;23;20014;-81
2022/07/29 06:00:26;;;;;;;7.45;2.50;;;14.80;99.90;;;;;;6246810;23;20016;-81
2022/07/29 06:02:51;;;;;;;9.13;2.90;;;14.80;99.90;;;;;;6218266;23;20023;-82
2022/07/29 06:05:17;;;;;;;8.93;2.60;;;14.70;99.90;;;;;;6219681;23;20020;-81
2022/07/29 06:07:42;;;;;;;8.10;2.60;;;14.80;99.90;;;;;;6246515;23;20384;-82
2022/07/29 06:10:09;;;;;;;9.07;2.85;;;14.90;99.90;;;;;;6245959;23;20015;-81
2022/07/29 06:12:37;;;;;;;8.05;2.65;;;14.80;99.90;;;;;;6246914;23;20022;-80
2022/07/29 06:15:03;;;;;;;9.38;2.60;;;14.90;99.90;;;;;;6219213;23;20348;-81
2022/07/29 06:17:29;;;;;;;7.57;2.78;;;15.00;99.90;;;;;;6218533;23;20012;-79
2022/07/29 06:19:54;;;;;;;5.72;2.30;;;15.10;99.90;;;;;;6219048;23;20016;-81
2022/07/29 06:22:21;;;;;;;8.48;2.50;;;15.20;99.90;;;;;;6219022;23;20487;-83
2022/07/29 06:24:47;;;;;;;8.45;2.50;;;15.40;99.90;;;;;;6218257;23;20031;-80
2022/07/29 06:27:12;;;;;;;8.40;3.10;;;15.50;99.90;;;;;;6246736;23;20428;-80
2022/07/29 06:29:38;;;;;;;11.70;2.63;;;15.50;99.90;;;;;;6219400;23;20023;-80
2022/07/29 06:32:04;;;;;;;8.52;2.65;;;15.60;99.90;;;;;;6218027;23;20468;-80
2022/07/29 06:34:29;;;;;;;9.43;2.60;;;15.70;99.90;;;;;;6219138;23;20340;-80
2022/07/29 06:36:55;;;;;;;7.97;2.50;;;15.70;99.90;;;;;;6245839;23;20042;-81
2022/07/29 06:39:21;;;;;;;8.30;2.88;;;15.70;99.90;;;;;;6218383;23;20024;-80
2022/07/29 06:41:50;;;;;;;9.50;2.72;;;15.70;99.90;;;;;;6219684;23;20062;-80
2022/07/29 06:44:17;;;;;;;6.82;2.40;;;15.80;99.90;;;;;;6219492;23;20054;-80
2022/07/29 06:46:43;;;;;;;7.78;2.65;;;15.90;99.90;;;;;;6218003;23;20016;-80
2022/07/29 06:49:09;;;;;;;8.20;2.70;;;16.10;99.90;;;;;;6219222;23;20012;-80
2022/07/29 06:51:35;;;;;;;10.00;2.95;;;16.70;99.90;;;;;;6246186;23;20012;-80
2022/07/29 06:54:02;;;;;;;8.48;2.60;;;16.70;99.90;;;;;;6218115;23;20580;-80
2022/07/29 06:56:32;;;;;;;7.50;2.42;;;16.50;99.90;;;;;;6246441;23;20043;-81
2022/07/29 06:58:57;;;;;;;7.97;2.70;;;16.40;99.90;;;;;;6217743;23;20448;-80
2022/07/29 07:01:23;;;;;;;9.00;2.47;;;16.60;99.90;;;;;;6245252;23;20020;-84
2022/07/29 07:03:51;;;;;;;9.07;2.80;;;16.80;99.90;;;;;;6245217;23;20055;-80
2022/07/29 07:06:17;;;;;;;9.48;2.70;;;16.80;99.90;;;;;;6244761;23;20452;-81
2022/07/29 07:08:43;;;;;;;7.93;2.53;;;16.90;99.90;;;;;;6218687;23;20023;-81
2022/07/29 07:11:09;;;;;;;7.43;2.53;;;16.90;99.90;;;;;;6218920;23;20012;-81
2022/07/29 07:13:34;;;;;;;9.13;2.90;;;17.30;99.90;;;;;;6244982;23;20062;-81
2022/07/29 07:16:01;;;;;;;9.50;2.65;;;17.10;99.90;;;;;;6218550;23;20016;-80
2022/07/29 07:18:27;;;;;;;8.80;2.60;;;17.10;99.90;;;;;;6245618;23;20024;-80
2022/07/29 07:20:53;;;;;;;8.63;2.75;;;17.10;99.90;;;;;;6217497;23;20020;-80
2022/07/29 07:23:19;;;;;;;7.50;2.40;;;17.20;99.90;;;;;;6245840;23;20023;-80
2022/07/29 07:25:44;;;;;;;8.32;2.55;;;17.20;99.90;;;;;;6245483;23;20023;-80
2022/07/29 07:28:10;;;;;;;7.38;2.40;;;17.30;99.90;;;;;;6244697;23;20008;-80
2022/07/29 07:30:36;;;;;;;8.13;2.40;;;17.40;99.90;;;;;;6218568;23;20020;-79
2022/07/29 07:33:02;;;;;;;9.25;2.60;;;17.50;99.90;;;;;;6218152;23;20016;-80
2022/07/29 07:35:28;;;;;;;8.80;2.53;;;17.60;99.90;;;;;;6217179;23;20016;-81
2022/07/29 07:37:55;;;;;;;9.18;2.58;;;17.70;99.90;;;;;;6218220;23;20023;-79
2022/07/29 07:40:21;;;;;;;7.50;2.40;;;17.70;99.90;;;;;;6217369;23;20012;-79
2022/07/29 07:42:47;;;;;;;9.65;2.35;;;17.80;99.90;;;;;;6215439;23;20436;-79
2022/07/29 07:45:12;;;;;;;7.72;2.60;;;17.80;99.90;;;;;;6245097;23;20016;-79
2022/07/29 07:47:39;;;;;;;10.82;2.65;;;17.80;99.90;;;;;;6245329;23;20439;-79
2022/07/29 07:50:06;;;;;;;9.95;2.70;;;17.90;99.90;;;;;;6244054;23;20379;-79
2022/07/29 07:52:32;;;;;;;8.05;2.90;;;18.00;99.90;;;;;;6218959;23;20012;-79
2022/07/29 07:55:01;;;;;;;7.60;2.45;;;18.00;99.90;;;;;;6245251;23;20448;-78
2022/07/29 07:57:27;;;;;;;9.07;2.50;;;18.40;99.90;;;;;;6217476;23;20099;-79
2022/07/29 07:59:52;;;;;;;9.10;2.70;;;18.20;99.90;;;;;;6217977;23;20051;-78
2022/07/29 08:02:18;;;;;;;10.15;2.50;;;18.30;99.90;;;;;;6217052;23;20016;-79
2022/07/29 08:04:43;;;;;;;7.72;2.50;;;18.40;99.90;;;;;;6244954;23;20019;-79
2022/07/29 08:07:09;;;;;;;8.48;2.60;;;18.50;99.90;;;;;;6218202;23;20498;-79
2022/07/29 08:09:35;;;;;;;9.07;2.60;;;18.70;99.90;;;;;;6244593;23;20023;-78
2022/07/29 08:12:05;;;;;;;8.07;2.40;;;18.70;99.90;;;;;;6244795;23;20409;-79
2022/07/29 08:14:31;;;;;;;7.78;2.58;;;18.80;99.90;;;;;;6218178;23;20020;-78
2022/07/29 08:16:56;;;;;;;8.57;2.90;;;18.90;99.90;;;;;;6216642;23;20061;-79
2022/07/29 08:19:22;;;;;;;8.52;2.58;;;18.90;99.90;;;;;;6245465;23;20024;-79
2022/07/29 08:21:47;;;;;;;10.65;2.55;;;19.10;99.90;;;;;;6244551;23;20012;-79
2022/07/29 08:26:57;;;;;;;8.07;2.70;;;19.10;99.90;;;;;;6217655;23;20072;-80
2022/07/29 08:29:23;;;;;;;9.32;2.50;;;19.00;99.90;;;;;;6218003;23;20055;-80
2022/07/29 08:31:48;;;;;;;7.38;2.50;;;19.10;99.90;;;;;;6243747;23;20306;-80
2022/07/29 08:34:14;;;;;;;8.07;2.38;;;19.00;99.90;;;;;;6218208;23;20091;-80
2022/07/29 08:36:39;;;;;;;10.27;2.75;;;19.00;99.90;;;;;;6218180;23;20463;-81
2022/07/29 08:39:05;;;;;;;10.63;2.50;;;19.60;99.90;;;;;;6217176;23;20016;-80
2022/07/29 08:45:10;;;;;;;8.13;2.60;;;19.50;99.90;;;;;;6156318;23;20470;-80
2022/07/29 08:47:55;;;;;;;8.13;2.78;;;19.50;99.90;;;;;;6220184;23;20019;-80
2022/07/29 08:50:20;;;;;;;8.35;2.45;;;19.60;99.90;;;;;;6220108;23;20027;-80
2022/07/29 08:52:48;;;;;;;7.90;2.50;;;19.60;99.90;;;;;;6218676;23;20337;-80
2022/07/29 08:55:17;;;;;;;8.82;2.60;;;19.60;99.90;;;;;;6247056;23;20095;-80
2022/07/29 08:57:44;;;;;;;8.93;2.63;;;19.60;99.90;;;;;;6219532;23;20043;-80
2022/07/29 09:00:10;;;;;;;7.30;2.42;;;19.70;99.90;;;;;;6246159;23;20012;-80
2022/07/29 09:02:57;;;;;;;8.05;2.70;;;19.70;99.90;;;;;;6214909;23;20340;-81
2022/07/29 09:05:24;;;;;;;8.02;2.70;;;20.60;99.90;;;;;;6247292;23;20020;-81
2022/07/29 09:07:50;;;;;;;9.30;3.05;;;19.90;99.90;;;;;;6245623;23;20016;-81
2022/07/29 09:10:16;;;;;;;7.43;2.70;;;20.10;99.90;;;;;;6220057;23;20059;-82
2022/07/29 09:12:42;;;;;;;9.30;2.55;;;20.10;99.90;;;;;;6218467;23;20012;-81
2022/07/29 09:15:08;;;;;;;8.63;2.80;;;20.30;99.90;;;;;;6219347;23;20059;-81
2022/07/29 09:17:48;;;;;;;9.98;2.92;;;20.60;99.90;;;;;;6246412;23;20008;-81
2022/07/29 09:20:19;;;;;;;9.20;2.90;;;21.00;99.90;;;;;;6246651;23;20047;-81
2022/07/29 09:22:48;;;;;;;10.57;3.20;;;21.40;99.90;;;;;;6219306;23;20019;-82
2022/07/29 09:25:15;;;;;;;8.10;2.50;;;21.70;99.90;;;;;;6246868;23;20008;-80
2022/07/29 09:27:41;;;;;;;8.48;2.72;;;21.80;99.90;;;;;;6218473;23;20048;-82
2022/07/29 09:30:13;;;;;;;8.70;2.50;;;22.20;99.90;;;;;;6219477;23;20094;-81
2022/07/29 09:33:08;;;;;;;11.27;2.90;;;21.70;99.90;;;;;;6246154;23;20026;-81
2022/07/29 09:35:33;;;;;;;8.18;2.85;;;21.70;99.90;;;;;;6218571;23;20428;-81
2022/07/29 09:38:13;;;;;;;9.52;2.80;;;21.40;99.90;;;;;;6219149;23;20026;-81
2022/07/29 09:40:39;;;;;;;7.43;2.53;;;21.50;99.90;;;;;;6245731;23;20123;-81
2022/07/29 09:43:12;;;;;;;7.80;2.55;;;21.50;99.90;;;;;;6219499;23;20441;-81
2022/07/29 09:45:38;;;;;;;8.95;2.40;;;21.60;99.90;;;;;;6219310;23;20020;-81
2022/07/29 09:48:19;;;;;;;8.60;2.53;;;21.40;99.90;;;;;;6245204;23;20051;-81
2022/07/29 09:50:46;;;;;;;8.20;2.50;;;21.30;99.90;;;;;;6245632;23;20016;-81
2022/07/29 09:53:30;;;;;;;8.63;2.47;;;21.30;99.90;;;;;;6246326;23;20017;-81
2022/07/29 09:55:55;;;;;;;;;;;21.20;99.90;;;;;;6218305;23;20027;-81
2022/07/29 09:58:22;;;;;;;8.27;2.80;;;21.20;99.90;;;;;;6244908;23;19915;-81
2022/07/29 10:00:50;;;;;;;9.45;2.70;;;21.10;99.90;;;;;;6216529;23;20016;-81
2022/07/29 10:03:16;;;;;;;9.70;2.65;;;21.20;99.90;;;;;;6216902;23;20016;-81
2022/07/29 10:05:43;;;;;;;8.85;2.58;;;21.20;99.90;;;;;;6217705;23;20016;-81
2022/07/29 10:15:44;;;;;;;10.75;3.28;;;21.10;99.90;;;;;;6246109;23;20039;-82
2022/07/29 10:18:25;;;;;;;7.82;2.65;;;21.10;99.90;;;;;;6242315;23;20027;-81
2022/07/29 10:21:06;;;;;;;10.20;2.75;;;21.00;99.90;;;;;;6246101;23;20014;-81
2022/07/29 10:23:36;;;;;;;8.55;3.05;;;21.40;99.90;;;;;;6218382;23;20063;-82
2022/07/29 10:26:04;;;;;;;8.88;2.80;;;21.00;99.90;;;;;;6245567;23;20464;-81
2022/07/29 10:28:45;;;;;;;9.27;3.00;;;20.50;99.90;;;;;;6246419;23;20008;-81
2022/07/29 10:35:05;;;;;;;7.50;2.70;;;20.20;99.90;;;;;;6202971;23;20522;-80
2022/07/29 10:38:32;;;;;;;9.13;2.70;;;20.20;99.90;;;;;;6166436;23;20033;-81
2022/07/29 10:44:44;;;;;;;7.50;2.60;;;20.10;99.90;;;;;;6154730;23;20442;-81
2022/07/29 10:47:28;;;;;;;8.75;3.00;;;20.00;99.90;;;;;;6128870;23;20253;-81
2022/07/29 10:50:44;;;;;;;7.53;2.90;;;19.90;99.90;;;;;;6129195;23;20006;-81
2022/07/29 10:53:10;;;;;;;10.25;2.75;;;19.80;99.90;;;;;;5997559;23;20029;-80
2022/07/29 10:55:56;;;;;;;10.35;3.03;;;20.40;99.90;;;;;;6128140;23;20359;-81
2022/07/29 10:58:25;;;;;;;8.40;2.90;;;19.70;99.90;;;;;;6152145;23;20049;-81
2022/07/29 11:00:52;;;;;;;8.40;2.80;;;19.90;99.90;;;;;;6127864;23;20025;-87
2022/07/29 11:04:13;;;;;;;10.45;2.90;;;19.70;99.90;;;;;;6128046;23;20060;-82
2022/07/29 11:07:03;;;;;;;13.45;3.38;;;19.70;99.90;;;;;;6127121;23;20022;-82
2022/07/29 11:10:22;;;;;;;8.82;3.03;;;19.70;99.90;;;;;;6127901;23;20017;-82
2022/07/29 11:12:48;;;;;;;10.82;3.28;;;20.60;99.90;;;;;;6151708;23;20018;-81
2022/07/29 11:16:07;;;;;;;11.00;3.30;;;19.80;99.90;;;;;;6128117;23;20477;-81
2022/07/29 11:19:16;;;;;;;12.13;2.97;;;19.80;99.90;;;;;;6128019;23;20358;-82
2022/07/29 11:21:49;;;;;;;11.18;3.10;;;19.90;99.90;;;;;;6128320;23;20105;-81
2022/07/29 11:24:31;;;;;;;10.07;3.15;;;20.10;99.90;;;;;;6154177;23;20020;-81
2022/07/29 11:27:39;;;;;;;9.85;3.00;;;20.60;99.90;;;;;;6154559;23;20065;-81
2022/07/29 11:30:14;;;;;;;10.10;3.10;;;20.20;99.90;;;;;;6153414;23;20013;-81
2022/07/29 11:32:58;;;;;;;9.55;3.47;;;20.30;99.90;;;;;;6153219;23;20013;-81
2022/07/29 11:35:27;;;;;;;10.95;2.90;;;20.40;99.90;;;;;;6127573;23;20018;-80
2022/07/29 11:38:22;;;;;;;12.13;3.20;;;21.10;99.90;;;;;;6128641;23;20068;-80
2022/07/29 11:41:25;;;;;;;11.25;3.38;;;20.70;99.90;;;;;;6127131;23;20025;-79
2022/07/29 11:43:59;;;;;;;8.07;3.00;;;20.60;99.90;;;;;;6127935;23;20043;-80
2022/07/29 11:46:51;;;;;;;9.45;3.20;;;20.70;99.90;;;;;;6129011;23;20021;-80
2022/07/29 11:49:25;;;;;;;9.85;2.85;;;20.80;99.90;;;;;;6127431;23;20067;-80
2022/07/29 11:51:58;;;;;;;10.70;3.38;;;20.80;99.90;;;;;;6154889;23;20017;-81
2022/07/29 11:54:33;;;;;;;12.55;3.25;;;20.80;99.90;;;;;;6127523;23;20018;-81
2022/07/29 11:56:59;;;;;;;11.48;3.10;;;20.80;99.90;;;;;;6128513;23;20014;-81
2022/07/29 11:59:26;;;;;;;11.63;3.38;;;20.80;99.90;;;;;;6155073;23;20013;-81
2022/07/29 12:01:58;;;;;;;11.63;3.17;;;20.80;99.90;;;;;;6124981;23;20092;-85
2022/07/29 12:04:24;;;;;;;12.50;3.35;;;20.90;99.90;;;;;;6128763;23;20028;-81
2022/07/29 12:06:53;;;;;;;10.00;3.03;;;20.90;99.90;;;;;;6154202;23;20330;-86
2022/07/29 12:09:20;;;;;;;8.35;3.15;;;20.90;99.90;;;;;;6127987;23;20049;-90
2022/07/29 12:11:47;;;;;;;10.15;3.50;;;21.30;99.90;;;;;;6128283;23;20397;-85
2022/07/29 12:14:45;;;;;;;11.07;3.47;;;21.00;99.90;;;;;;6154370;23;20017;-86
2022/07/29 12:17:29;;;;;;;9.88;3.25;;;21.20;99.90;;;;;;6127434;23;20022;-86
2022/07/29 12:20:00;;;;;;;10.75;3.20;;;21.20;99.90;;;;;;6154387;23;20053;-87
2022/07/29 12:22:40;;;;;;;11.80;3.40;;;21.70;99.90;;;;;;6153867;23;20021;-86
2022/07/29 12:25:16;;;;;;;9.57;3.15;;;21.90;99.90;;;;;;6128187;23;20021;-87
2022/07/29 12:27:50;;;;;;;8.70;3.45;;;21.60;99.90;;;;;;6155177;23;20010;-87
2022/07/29 12:30:16;;;;;;;11.38;3.63;;;21.90;99.90;;;;;;6154495;23;20030;-84
2022/07/29 12:32:52;;;;;;;8.88;3.55;;;21.40;99.90;;;;;;6127940;23;20018;-92
2022/07/29 12:38:22;;;;;;;20.08;4.05;;;21.40;99.90;;;;;;6153399;23;20082;-83
2022/07/29 12:40:57;;;;;;;10.98;3.65;;;21.40;99.90;;;;;;6127792;23;20033;-82
2022/07/29 12:47:03;;;;;;;11.82;3.60;;;21.40;99.90;;;;;;6127238;23;20025;-82
2022/07/29 12:49:34;;;;;;;11.80;3.42;;;21.40;99.90;;;;;;6128550;23;20029;-82
2022/07/29 12:52:30;;;;;;;1068.88;95.05;;;21.50;99.90;;;;;;6160081;23;20132;-83
2022/07/29 12:55:26;;;;;;;9.32;3.22;;;21.20;99.90;;;;;;6244451;23;20020;-82
2022/07/29 12:58:07;;;;;;;9.30;3.53;;;21.50;99.90;;;;;;6216664;23;20790;-82
2022/07/29 13:01:17;;;;;;;8.93;3.20;;;22.10;99.90;;;;;;6217759;23;20012;-82
2022/07/29 13:03:59;;;;;;;9.95;3.15;;;21.60;99.90;;;;;;6244693;23;20020;-82
2022/07/29 13:07:01;;;;;;;9.80;3.45;;;21.70;99.90;;;;;;6244080;23;20019;-82
2022/07/29 13:10:17;;;;;;;8.70;3.35;;;21.80;99.90;;;;;;6217654;23;20062;-82
2022/07/29 13:13:14;;;;;;;9.25;3.28;;;21.90;99.90;;;;;;6243668;23;20016;-82
2022/07/29 13:15:43;;;;;;;12.27;3.97;;;22.00;99.90;;;;;;6218007;23;20027;-82
2022/07/29 13:18:46;;;;;;;10.40;3.47;;;22.30;99.90;;;;;;6217237;23;20103;-82
2022/07/29 13:21:27;;;;;;;8.90;3.20;;;22.40;99.90;;;;;;6244593;23;20016;-82
2022/07/29 13:23:59;;;;;;;9.50;3.22;;;22.50;99.90;;;;;;6216824;23;20008;-82
2022/07/29 13:26:40;;;;;;;10.15;3.50;;;22.60;99.90;;;;;;6216618;23;20016;-82
2022/07/29 13:29:06;;;;;;;9.25;3.30;;;23.00;99.90;;;;;;6217129;23;20019;-83
2022/07/29 13:31:38;;;;;;;8.45;2.95;;;22.80;99.90;;;;;;6218590;23;20013;-82
2022/07/29 13:34:04;;;;;;;7.82;3.22;;;23.50;99.90;;;;;;6217897;23;20012;-82
2022/07/29 13:36:33;;;;;;;9.40;3.33;;;23.00;99.90;;;;;;6218989;23;20022;-83
2022/07/29 13:39:11;;;;;;;10.95;3.20;;;23.00;99.90;;;;;;6245856;23;20039;-83
2022/07/29 13:41:37;;;;;;;10.13;3.42;;;23.10;99.90;;;;;;6245723;23;20055;-80